Time;durP1;ratioP1;P1;durP2;ratioP2;P2;SDS_P1;SDS_P2;PMS_P1;PMS_P2;Temp;Humidity;BMP_temperature;BMP_pressure;BME280_temperature;BME280_humidity;BME280_pressure;Samples;Min_cycle;Max_cycle;Signal;HPM_P1;HPM_P2
2022/10/04 00:01:54;;;;;;;3.67;1.90;;;21.40;51.00;;;;;;5051276;28;20379;-53
2022/10/04 00:04:52;;;;;;;4.82;1.83;;;21.40;51.00;;;;;;5037424;28;20044;-51
2022/10/04 00:07:27;;;;;;;4.05;1.60;;;21.40;51.00;;;;;;5013541;28;20389;-49
2022/10/04 00:09:57;;;;;;;6.18;1.80;;;21.30;50.90;;;;;;5044951;28;20037;-48
2022/10/04 00:12:29;;;;;;;2.90;1.52;;;21.40;51.00;;;;;;5038110;28;20461;-48
2022/10/04 00:15:00;;;;;;;2.28;1.20;;;21.40;51.00;;;;;;5048305;28;20025;-48
2022/10/04 00:17:30;;;;;;;4.07;1.80;;;21.30;50.90;;;;;;5056100;28;20037;-53
2022/10/04 00:19:57;;;;;;;2.30;1.50;;;21.30;50.90;;;;;;5040808;28;20030;-48
2022/10/04 00:22:28;;;;;;;4.30;1.40;;;21.30;50.90;;;;;;5037901;28;20033;-51
2022/10/04 00:25:06;;;;;;;3.25;1.85;;;21.30;50.90;;;;;;5038396;28;20033;-49
2022/10/04 00:27:33;;;;;;;2.33;1.30;;;21.30;50.90;;;;;;5037852;28;20063;-47
2022/10/04 00:30:02;;;;;;;3.10;1.98;;;21.30;51.00;;;;;;5039477;28;20442;-50
2022/10/04 00:33:03;;;;;;;4.22;1.70;;;21.30;50.90;;;;;;5058842;28;20029;-50
2022/10/04 00:35:29;;;;;;;2.35;1.42;;;21.30;50.90;;;;;;5018371;28;20030;-49
2022/10/04 00:37:56;;;;;;;4.68;1.58;;;21.30;51.00;;;;;;5018271;28;20052;-47
2022/10/04 00:40:27;;;;;;;2.83;1.60;;;21.30;51.00;;;;;;5044756;28;20359;-50
2022/10/04 00:43:21;;;;;;;1.80;1.35;;;21.30;51.00;;;;;;5037940;28;20471;-53
2022/10/04 00:45:50;;;;;;;3.47;1.83;;;21.30;50.90;;;;;;5053953;28;20083;-53
2022/10/04 00:48:33;;;;;;;3.95;1.60;;;21.30;51.00;;;;;;5040276;28;20045;-54
2022/10/04 00:51:08;;;;;;;5.88;2.00;;;21.30;51.00;;;;;;5037257;28;20036;-53
2022/10/04 00:53:57;;;;;;;4.13;1.77;;;21.30;51.00;;;;;;5037910;28;20056;-54
2022/10/04 00:56:29;;;;;;;3.33;1.75;;;21.30;51.00;;;;;;5043207;28;20045;-51
2022/10/04 00:58:56;;;;;;;4.18;1.80;;;21.30;51.00;;;;;;5051678;28;20040;-53
2022/10/04 01:01:24;;;;;;;2.50;1.42;;;21.30;51.60;;;;;;5037308;28;20032;-54
2022/10/04 01:03:55;;;;;;;2.42;1.38;;;21.30;50.90;;;;;;5038763;28;20461;-48
2022/10/04 01:06:21;;;;;;;4.30;1.60;;;21.30;51.00;;;;;;5056394;28;20025;-55
2022/10/04 01:08:51;;;;;;;3.88;1.55;;;21.20;50.90;;;;;;5048300;28;20502;-51
2022/10/04 01:11:22;;;;;;;3.05;1.60;;;21.20;50.90;;;;;;5037995;28;20076;-52
2022/10/04 01:14:07;;;;;;;2.30;1.20;;;21.20;50.90;;;;;;5035250;28;20034;-53
2022/10/04 01:16:37;;;;;;;3.33;1.50;;;21.20;50.90;;;;;;5037047;28;20445;-53
2022/10/04 01:19:22;;;;;;;2.30;1.40;;;21.20;50.90;;;;;;5037073;28;20037;-51
2022/10/04 01:22:02;;;;;;;2.95;1.40;;;21.20;50.90;;;;;;5037310;28;20043;-54
2022/10/04 01:24:42;;;;;;;2.80;1.38;;;21.20;50.90;;;;;;5040931;28;20025;-53
2022/10/04 01:27:38;;;;;;;2.80;1.27;;;21.20;50.90;;;;;;5036454;28;20029;-51
2022/10/04 01:30:08;;;;;;;2.42;1.33;;;21.20;50.90;;;;;;5040600;28;20056;-53
2022/10/04 01:32:36;;;;;;;3.15;1.50;;;21.20;50.90;;;;;;5036698;28;20025;-52
2022/10/04 01:35:03;;;;;;;3.85;1.73;;;21.20;51.00;;;;;;5039634;28;20026;-50
2022/10/04 01:37:29;;;;;;;3.92;2.00;;;21.20;51.00;;;;;;5038611;28;20025;-53
2022/10/04 01:39:56;;;;;;;2.42;1.67;;;21.20;51.00;;;;;;5052583;28;20111;-53
2022/10/04 01:42:47;;;;;;;2.97;1.25;;;21.20;51.00;;;;;;5055589;28;20057;-55
2022/10/04 01:45:41;;;;;;;2.67;1.40;;;21.20;51.00;;;;;;5039926;28;20037;-55
2022/10/04 01:48:15;;;;;;;2.78;1.20;;;21.20;50.90;;;;;;5037973;28;20036;-53
2022/10/04 01:51:12;;;;;;;4.63;1.58;;;21.20;51.00;;;;;;5046016;28;20021;-51
2022/10/04 01:54:01;;;;;;;2.67;1.50;;;21.20;50.90;;;;;;5053369;28;20481;-50
2022/10/04 01:56:51;;;;;;;2.55;1.50;;;21.10;50.90;;;;;;5056464;28;20379;-49
2022/10/04 01:59:28;;;;;;;1.85;1.20;;;21.10;50.90;;;;;;5046255;28;20376;-51
2022/10/04 02:02:00;;;;;;;2.67;1.40;;;21.10;51.00;;;;;;5044494;28;20342;-53
2022/10/04 02:04:32;;;;;;;2.50;1.65;;;21.20;51.00;;;;;;5054101;28;20112;-51
2022/10/04 02:07:00;;;;;;;4.05;1.70;;;21.10;51.00;;;;;;5040318;28;20060;-50
2022/10/04 02:09:33;;;;;;;2.78;1.58;;;21.10;50.90;;;;;;5042569;28;20114;-49
2022/10/04 02:11:59;;;;;;;2.95;1.60;;;21.20;51.00;;;;;;5035932;28;20457;-52
2022/10/04 02:14:31;;;;;;;2.53;1.52;;;21.10;51.00;;;;;;5036007;28;20036;-49
2022/10/04 02:17:00;;;;;;;3.35;1.30;;;21.10;51.00;;;;;;5035826;28;20112;-50
2022/10/04 02:19:33;;;;;;;2.42;1.38;;;21.10;51.00;;;;;;5036810;28;20105;-51
2022/10/04 02:22:02;;;;;;;2.67;1.30;;;21.10;51.00;;;;;;5048250;28;20029;-50
2022/10/04 02:24:32;;;;;;;2.05;1.27;;;21.10;51.00;;;;;;5055906;28;20098;-52
2022/10/04 02:26:58;;;;;;;2.35;1.20;;;21.10;51.00;;;;;;5052388;28;20033;-51
2022/10/04 02:29:25;;;;;;;3.10;1.73;;;21.10;51.00;;;;;;5035749;28;20115;-49
2022/10/04 02:34:37;;;;;;;;;;;21.10;51.00;;;;;;5036508;28;20033;-54
2022/10/04 02:37:04;;;;;;;2.50;1.25;;;21.10;51.00;;;;;;5038325;28;19920;-50
2022/10/04 02:39:46;;;;;;;3.05;1.70;;;21.10;51.00;;;;;;5016243;28;20034;-49
2022/10/04 02:42:24;;;;;;;2.72;1.40;;;21.10;51.10;;;;;;5022544;28;20052;-49
2022/10/04 02:44:59;;;;;;;3.88;1.45;;;21.10;51.10;;;;;;5035228;28;20113;-53
2022/10/04 02:47:31;;;;;;;2.63;1.58;;;21.10;51.10;;;;;;5035469;28;20449;-49
2022/10/04 02:50:15;;;;;;;2.55;1.40;;;21.10;51.10;;;;;;5037510;28;20041;-50
2022/10/04 02:52:53;;;;;;;3.10;1.50;;;21.10;51.20;;;;;;5035501;28;20357;-50
2022/10/04 02:55:23;;;;;;;2.25;1.35;;;21.10;51.20;;;;;;5020906;28;20051;-50
2022/10/04 02:57:51;;;;;;;2.20;1.27;;;21.10;51.20;;;;;;5047382;28;20108;-49
2022/10/04 03:00:31;;;;;;;2.47;1.20;;;21.10;51.20;;;;;;5034971;28;20033;-55
2022/10/04 03:03:12;;;;;;;2.75;1.48;;;21.10;51.20;;;;;;5041159;28;20108;-48
2022/10/04 03:05:39;;;;;;;2.97;1.27;;;21.10;51.20;;;;;;5051075;28;20075;-49
2022/10/04 03:08:05;;;;;;;2.92;1.30;;;21.10;51.20;;;;;;5052788;28;20063;-53
2022/10/04 03:10:31;;;;;;;3.55;1.23;;;21.10;51.30;;;;;;5054532;28;20068;-48
2022/10/04 03:12:58;;;;;;;3.05;1.45;;;21.10;51.30;;;;;;5041019;28;20036;-50
2022/10/04 03:15:24;;;;;;;2.10;1.38;;;21.00;51.20;;;;;;5015421;28;20419;-50
2022/10/04 03:17:50;;;;;;;2.00;1.20;;;21.00;51.20;;;;;;5030473;28;20104;-51
2022/10/04 03:20:20;;;;;;;3.08;1.52;;;21.00;51.10;;;;;;5047893;28;20436;-49
2022/10/04 03:22:52;;;;;;;2.60;1.23;;;21.00;51.10;;;;;;5049167;28;20116;-54
2022/10/04 03:25:23;;;;;;;2.80;1.30;;;21.10;51.10;;;;;;5052162;28;20032;-51
2022/10/04 03:27:50;;;;;;;4.57;1.30;;;21.10;51.10;;;;;;5055179;28;20044;-49
2022/10/04 03:30:20;;;;;;;2.70;1.38;;;21.00;51.10;;;;;;5053257;28;20037;-51
2022/10/04 03:32:48;;;;;;;3.25;1.38;;;21.00;51.10;;;;;;5054931;28;20028;-49
2022/10/04 03:35:39;;;;;;;2.42;1.52;;;21.00;51.10;;;;;;5051942;28;20037;-50
2022/10/04 03:38:07;;;;;;;2.15;1.27;;;21.00;51.10;;;;;;5040521;28;20045;-48
2022/10/04 03:40:36;;;;;;;3.58;1.17;;;21.00;51.10;;;;;;5041330;28;20120;-52
2022/10/04 03:43:04;;;;;;;2.45;1.00;;;21.00;51.10;;;;;;5040973;28;20114;-52
2022/10/04 03:45:32;;;;;;;2.05;1.17;;;21.00;51.10;;;;;;5050943;28;20043;-53
2022/10/04 03:48:04;;;;;;;2.30;1.40;;;21.00;51.10;;;;;;5041127;28;20034;-56
2022/10/04 03:50:40;;;;;;;3.65;1.55;;;21.00;51.00;;;;;;5045495;28;20033;-54
2022/10/04 03:53:24;;;;;;;3.55;1.30;;;21.00;51.10;;;;;;5061954;28;20495;-54
2022/10/04 03:55:51;;;;;;;2.55;1.20;;;21.00;51.10;;;;;;5061400;28;20114;-54
2022/10/04 03:58:19;;;;;;;1.83;0.95;;;21.00;51.00;;;;;;5059258;28;20037;-51
2022/10/04 04:01:06;;;;;;;2.25;1.20;;;21.00;51.00;;;;;;5048134;28;20071;-55
2022/10/04 04:03:54;;;;;;;3.85;1.20;;;21.00;51.00;;;;;;5059139;28;20025;-54
2022/10/04 04:06:22;;;;;;;1.75;1.23;;;21.00;51.00;;;;;;5021546;28;20327;-55
2022/10/04 04:08:53;;;;;;;1.58;1.00;;;21.00;51.00;;;;;;5027917;28;20089;-55
2022/10/04 04:11:24;;;;;;;2.08;1.00;;;21.00;50.90;;;;;;5046637;28;20094;-55
2022/10/04 04:14:03;;;;;;;3.45;1.30;;;21.00;50.90;;;;;;5050836;28;20029;-52
2022/10/04 04:16:29;;;;;;;3.30;1.38;;;20.90;50.90;;;;;;5060791;28;20036;-50
2022/10/04 04:19:02;;;;;;;1.88;1.27;;;20.90;50.80;;;;;;5052383;28;20025;-52
2022/10/04 04:21:29;;;;;;;2.05;1.08;;;20.90;50.80;;;;;;5040373;28;20433;-52
2022/10/04 04:24:02;;;;;;;4.38;1.20;;;20.90;50.80;;;;;;5049331;28;20036;-54
2022/10/04 04:26:43;;;;;;;2.03;1.23;;;20.90;50.70;;;;;;5060663;28;20029;-49
2022/10/04 04:29:27;;;;;;;2.35;1.30;;;20.90;50.70;;;;;;5041336;28;20191;-49
2022/10/04 04:32:01;;;;;;;2.22;1.20;;;20.90;50.70;;;;;;5045401;28;20037;-53
2022/10/04 04:34:32;;;;;;;1.92;1.08;;;20.90;50.70;;;;;;5058993;28;20044;-55
2022/10/04 04:37:01;;;;;;;2.30;1.30;;;20.90;50.70;;;;;;5059581;28;20033;-52
2022/10/04 04:40:02;;;;;;;3.60;1.40;;;20.90;50.70;;;;;;5060603;28;20044;-52
2022/10/04 04:42:28;;;;;;;3.17;1.40;;;20.90;50.70;;;;;;5054814;28;20084;-53
2022/10/04 04:45:00;;;;;;;2.78;1.48;;;20.90;50.70;;;;;;5055332;28;20291;-52
2022/10/04 04:47:39;;;;;;;2.70;1.25;;;20.90;50.70;;;;;;5048831;28;20025;-51
2022/10/04 04:50:29;;;;;;;3.47;1.30;;;20.90;50.70;;;;;;5047836;28;20048;-53
2022/10/04 04:53:07;;;;;;;1.92;1.08;;;20.90;50.70;;;;;;5048573;28;20155;-52
2022/10/04 04:55:44;;;;;;;2.10;1.30;;;20.90;51.20;;;;;;5037457;28;20044;-51
2022/10/04 04:58:20;;;;;;;2.80;1.13;;;20.90;50.60;;;;;;5038158;28;20036;-49
2022/10/04 05:00:54;;;;;;;2.40;1.30;;;20.90;50.60;;;;;;5053523;28;20443;-51
2022/10/04 05:03:20;;;;;;;3.50;1.10;;;20.90;50.60;;;;;;5056292;28;20029;-53
2022/10/04 05:05:50;;;;;;;2.20;1.15;;;20.90;50.50;;;;;;5057197;28;20040;-52
2022/10/04 05:08:28;;;;;;;2.28;1.20;;;20.90;50.50;;;;;;5041189;28;20038;-54
2022/10/04 05:10:57;;;;;;;3.33;1.40;;;20.90;50.50;;;;;;5037229;28;20045;-52
2022/10/04 05:13:55;;;;;;;4.25;1.25;;;20.80;50.40;;;;;;5047769;28;20472;-52
2022/10/04 05:16:44;;;;;;;2.75;1.23;;;20.80;50.40;;;;;;5057398;28;20033;-49
2022/10/04 05:19:33;;;;;;;1.85;1.20;;;20.80;50.40;;;;;;5036521;28;20361;-54
2022/10/04 05:22:06;;;;;;;1.85;1.17;;;20.90;50.40;;;;;;5036496;28;20342;-52
2022/10/04 05:24:41;;;;;;;2.80;1.45;;;20.80;50.40;;;;;;5037800;28;21328;-51
2022/10/04 05:27:16;;;;;;;2.90;1.42;;;20.80;50.40;;;;;;5051672;28;20048;-54
2022/10/04 05:30:03;;;;;;;3.08;1.40;;;20.90;50.40;;;;;;5056791;28;20106;-54
2022/10/04 05:32:35;;;;;;;1.95;1.15;;;20.80;50.40;;;;;;5049041;28;20037;-49
2022/10/04 05:35:01;;;;;;;2.28;1.50;;;20.80;50.40;;;;;;5054125;28;20028;-52
2022/10/04 05:37:57;;;;;;;3.15;1.25;;;20.80;50.40;;;;;;5056676;28;20033;-51
2022/10/04 05:40:42;;;;;;;3.60;1.58;;;20.80;50.40;;;;;;5016962;28;20030;-52
2022/10/04 05:43:26;;;;;;;2.65;1.27;;;20.80;50.30;;;;;;5035491;28;20030;-52
2022/10/04 05:46:28;;;;;;;2.33;1.10;;;20.80;50.30;;;;;;5056447;28;20055;-54
2022/10/04 05:49:05;;;;;;;2.28;1.33;;;20.80;50.30;;;;;;5005105;28;20053;-54
2022/10/04 05:51:46;;;;;;;2.67;1.40;;;20.80;50.40;;;;;;5045841;28;20425;-50
2022/10/04 05:54:12;;;;;;;1.95;1.15;;;20.80;50.40;;;;;;5056637;28;20032;-53
2022/10/04 05:56:50;;;;;;;2.97;1.45;;;20.80;50.40;;;;;;5056679;28;20482;-56
2022/10/04 05:59:37;;;;;;;3.05;1.55;;;20.70;50.40;;;;;;5052426;28;20033;-55
2022/10/04 06:02:24;;;;;;;3.20;1.40;;;20.80;50.40;;;;;;5055779;28;20556;-54
2022/10/04 06:05:43;;;;;;;3.97;1.40;;;20.80;50.40;;;;;;5037030;28;20348;-52
2022/10/04 06:08:25;;;;;;;5.30;1.27;;;20.80;50.40;;;;;;5034000;28;20067;-52
2022/10/04 06:11:09;;;;;;;3.30;1.40;;;20.80;50.40;;;;;;5036056;28;20092;-54
2022/10/04 06:14:00;;;;;;;1.95;1.30;;;20.70;50.30;;;;;;5039672;28;20025;-52
2022/10/04 06:16:40;;;;;;;3.10;1.52;;;20.70;50.40;;;;;;5055781;28;20032;-49
2022/10/04 06:19:41;;;;;;;5.25;1.50;;;20.70;50.40;;;;;;5043299;28;20116;-51
2022/10/04 06:22:17;;;;;;;3.70;1.55;;;20.70;50.40;;;;;;5035166;28;20037;-50
2022/10/04 06:24:48;;;;;;;3.80;1.40;;;20.70;50.40;;;;;;5035817;28;20065;-51
2022/10/04 06:27:18;;;;;;;3.67;1.60;;;20.70;50.40;;;;;;5035728;28;20099;-46
2022/10/04 06:30:14;;;;;;;2.60;1.40;;;20.70;50.40;;;;;;5034003;28;20202;-49
2022/10/04 06:32:58;;;;;;;2.75;1.40;;;20.70;50.40;;;;;;5046195;28;20420;-50
2022/10/04 06:36:10;;;;;;;2.85;1.80;;;20.70;50.50;;;;;;5022567;28;20037;-52
2022/10/04 06:38:54;;;;;;;5.10;1.90;;;20.70;50.40;;;;;;5023113;28;20033;-48
2022/10/04 06:41:52;;;;;;;4.45;1.70;;;20.70;50.40;;;;;;5047519;28;20057;-51
2022/10/04 06:44:35;;;;;;;3.72;1.75;;;20.70;50.40;;;;;;5001711;28;20124;-53
2022/10/04 06:47:28;;;;;;;3.70;1.67;;;20.70;50.40;;;;;;5027416;28;20113;-51
2022/10/04 06:50:09;;;;;;;4.40;1.83;;;20.70;50.50;;;;;;5033655;28;20037;-55
2022/10/04 06:52:50;;;;;;;2.97;1.65;;;20.70;50.50;;;;;;5032328;28;20463;-49
2022/10/04 06:55:32;;;;;;;3.35;1.45;;;20.70;50.50;;;;;;5031310;28;20033;-52
2022/10/04 06:58:11;;;;;;;4.82;1.95;;;20.70;51.10;;;;;;5048572;28;20044;-50
2022/10/04 07:01:04;;;;;;;2.70;1.70;;;20.70;50.50;;;;;;5043437;28;20032;-52
2022/10/04 07:03:39;;;;;;;3.63;1.48;;;20.70;50.50;;;;;;5041710;28;20084;-52
2022/10/04 07:06:10;;;;;;;3.00;1.42;;;20.70;50.40;;;;;;5055021;28;20025;-54
2022/10/04 07:08:49;;;;;;;2.25;1.60;;;20.70;50.50;;;;;;5040156;28;20029;-55
2022/10/04 07:11:36;;;;;;;3.08;1.83;;;20.70;50.40;;;;;;5014417;28;20050;-53
2022/10/04 07:14:01;;;;;;;2.33;1.40;;;20.70;50.50;;;;;;5015299;28;20040;-54
2022/10/04 07:16:36;;;;;;;4.80;1.95;;;20.70;50.50;;;;;;5040957;28;20037;-53
2022/10/04 07:19:05;;;;;;;3.47;1.92;;;20.70;50.50;;;;;;5032939;28;20033;-54
2022/10/04 07:21:57;;;;;;;2.45;1.58;;;20.70;50.60;;;;;;5034351;28;20368;-54
2022/10/04 07:24:31;;;;;;;3.38;1.90;;;20.70;50.60;;;;;;5034914;28;20468;-53
2022/10/04 07:26:57;;;;;;;4.55;1.98;;;20.70;50.70;;;;;;5052198;28;20487;-55
2022/10/04 07:29:32;;;;;;;8.18;3.40;;;20.70;50.70;;;;;;5047433;28;20099;-50
2022/10/04 07:32:07;;;;;;;9.50;3.25;;;20.70;50.80;;;;;;5040022;28;20116;-52
2022/10/04 07:34:44;;;;;;;;;;;20.70;50.90;;;;;;5036026;28;20029;-54
2022/10/04 07:37:16;;;;;;;10.05;4.13;;;20.70;51.00;;;;;;5042199;28;19960;-52
2022/10/04 07:39:49;;;;;;;12.63;3.65;;;20.80;51.10;;;;;;5036332;28;20025;-50
2022/10/04 07:42:33;;;;;;;11.68;4.13;;;20.80;51.10;;;;;;5040519;28;20037;-50
2022/10/04 07:45:10;;;;;;;11.13;3.70;;;20.70;51.10;;;;;;5042146;28;20029;-48
2022/10/04 07:47:36;;;;;;;11.52;3.97;;;20.80;51.20;;;;;;5042428;28;20029;-52
2022/10/04 07:50:23;;;;;;;9.90;3.47;;;20.80;51.30;;;;;;5045123;28;20040;-52
2022/10/04 07:53:15;;;;;;;7.95;2.75;;;20.80;51.30;;;;;;5030480;28;20071;-51
2022/10/04 07:55:48;;;;;;;9.93;3.50;;;20.80;51.30;;;;;;5046714;28;20033;-54
2022/10/04 07:58:38;;;;;;;6.38;2.75;;;20.80;51.30;;;;;;5041871;28;20115;-53
2022/10/04 08:01:34;;;;;;;8.30;2.83;;;20.80;51.30;;;;;;5046896;28;20033;-64
2022/10/04 08:04:19;;;;;;;8.80;3.50;;;20.80;51.30;;;;;;5034231;28;20095;-53
2022/10/04 08:06:48;;;;;;;6.32;2.88;;;20.80;51.30;;;;;;5033717;28;20040;-54
2022/10/04 08:09:33;;;;;;;7.85;3.17;;;20.80;51.30;;;;;;5033453;28;20037;-56
2022/10/04 08:12:16;;;;;;;5.63;2.63;;;20.80;51.30;;;;;;5033514;28;20041;-54
2022/10/04 08:14:56;;;;;;;6.13;2.63;;;20.80;51.20;;;;;;5034726;28;20071;-53
2022/10/04 08:17:50;;;;;;;6.63;2.92;;;20.80;51.10;;;;;;5048547;28;20392;-55
2022/10/04 08:20:27;;;;;;;6.50;2.38;;;20.80;51.10;;;;;;5035403;28;20032;-50
2022/10/04 08:23:14;;;;;;;5.95;2.53;;;20.80;51.00;;;;;;5037705;28;20064;-51
2022/10/04 08:26:19;;;;;;;4.50;2.30;;;20.80;50.90;;;;;;5038343;28;20033;-50
2022/10/04 08:31:54;;;;;;;4.75;2.00;;;20.80;50.80;;;;;;5038029;28;20333;-49
2022/10/04 08:34:41;;;;;;;5.47;2.07;;;20.80;50.70;;;;;;5038240;28;20037;-54
2022/10/04 08:37:40;;;;;;;5.00;1.67;;;20.80;50.70;;;;;;5045463;28;20445;-47
2022/10/04 08:40:25;;;;;;;3.83;1.80;;;20.80;50.70;;;;;;5037412;28;20334;-51
2022/10/04 08:43:10;;;;;;;;;;;20.80;50.60;;;;;;5037960;28;20345;-49
2022/10/04 08:45:55;;;;;;;4.95;1.88;;;20.90;50.60;;;;;;5036655;28;19909;-48
2022/10/04 08:48:29;;;;;;;3.38;2.08;;;20.80;50.50;;;;;;5038283;28;20025;-47
2022/10/04 08:51:07;;;;;;;;;;;20.90;50.50;;;;;;5036471;28;20040;-51
2022/10/04 08:53:45;;;;;;;3.65;1.60;;;20.80;50.40;;;;;;5037740;28;20367;-50
2022/10/04 08:56:31;;;;;;;3.10;1.60;;;20.80;50.40;;;;;;5037878;28;20021;-53
2022/10/04 08:59:35;;;;;;;3.65;1.70;;;20.80;50.30;;;;;;5033454;28;20444;-48
2022/10/04 09:02:23;;;;;;;3.10;2.08;;;20.80;50.30;;;;;;5037851;28;20341;-51
2022/10/04 09:05:31;;;;;;;2.42;1.38;;;20.90;50.30;;;;;;5037054;28;20088;-53
2022/10/04 09:08:09;;;;;;;3.78;1.80;;;20.80;50.20;;;;;;5018276;28;20041;-53
2022/10/04 09:11:04;;;;;;;3.00;1.70;;;20.90;50.20;;;;;;5038801;28;20064;-49
2022/10/04 09:14:02;;;;;;;4.82;1.80;;;20.90;50.10;;;;;;5037253;28;20069;-50
2022/10/04 09:16:57;;;;;;;4.22;1.65;;;20.90;50.00;;;;;;5037182;28;20072;-51
2022/10/04 09:19:33;;;;;;;;;;;20.90;49.90;;;;;;5037595;28;20034;-51
2022/10/04 09:22:10;;;;;;;3.22;1.70;;;20.90;49.90;;;;;;5036913;28;20332;-52
2022/10/04 09:24:35;;;;;;;4.38;1.88;;;20.90;49.90;;;;;;5036842;28;20068;-51
2022/10/04 09:27:18;;;;;;;3.72;1.50;;;20.90;49.80;;;;;;5036426;28;20057;-50
2022/10/04 09:29:58;;;;;;;3.70;1.50;;;20.90;49.80;;;;;;5047582;28;20111;-49
2022/10/04 09:32:39;;;;;;;5.47;1.92;;;20.90;49.70;;;;;;5057030;28;20475;-53
2022/10/04 09:35:23;;;;;;;3.08;1.38;;;20.90;49.70;;;;;;5056400;28;20120;-53
2022/10/04 09:37:52;;;;;;;3.22;1.52;;;20.90;49.70;;;;;;5056787;28;20025;-48
2022/10/04 09:40:39;;;;;;;3.78;1.85;;;20.90;49.60;;;;;;5051630;28;20515;-49
2022/10/04 09:43:33;;;;;;;3.30;1.58;;;20.90;49.60;;;;;;5036562;28;20037;-48
2022/10/04 09:46:27;;;;;;;3.43;1.57;;;20.90;49.50;;;;;;5036348;28;20061;-48
2022/10/04 09:49:31;;;;;;;2.97;1.60;;;20.90;49.50;;;;;;5049269;28;20118;-50
2022/10/04 09:52:26;;;;;;;4.68;1.70;;;20.90;49.50;;;;;;5017076;28;20045;-49
2022/10/04 09:55:05;;;;;;;3.08;1.30;;;20.90;49.40;;;;;;5024272;28;20042;-51
2022/10/04 09:58:06;;;;;;;3.80;1.58;;;20.90;49.40;;;;;;5052297;28;20029;-49
2022/10/04 10:00:45;;;;;;;3.35;1.60;;;21.00;49.40;;;;;;5036395;28;20110;-55
2022/10/04 10:03:20;;;;;;;2.92;1.33;;;20.90;49.40;;;;;;5038577;28;20033;-52
2022/10/04 10:05:59;;;;;;;3.75;1.85;;;21.00;49.50;;;;;;5034661;28;20041;-48
2022/10/04 10:08:40;;;;;;;3.47;1.70;;;21.00;50.00;;;;;;5043679;28;20060;-55
2022/10/04 10:14:51;;;;;;;4.20;1.60;;;21.00;50.60;;;;;;5050799;28;20037;-48
2022/10/04 10:18:00;;;;;;;5.97;2.05;;;21.10;50.80;;;;;;5027239;28;20084;-55
2022/10/04 10:20:53;;;;;;;4.18;1.60;;;21.10;50.90;;;;;;5046999;28;20415;-56
2022/10/04 10:23:46;;;;;;;3.33;1.52;;;21.10;50.90;;;;;;5056063;28;20033;-55
2022/10/04 10:26:23;;;;;;;4.18;1.60;;;21.10;50.90;;;;;;5039012;28;20421;-56
2022/10/04 10:29:15;;;;;;;2.95;1.50;;;21.20;51.00;;;;;;5038025;28;20412;-55
2022/10/04 10:32:03;;;;;;;4.22;1.80;;;21.20;51.00;;;;;;5037377;28;20310;-54
2022/10/04 10:34:44;;;;;;;2.67;1.40;;;21.20;51.00;;;;;;5044965;28;20029;-53
2022/10/04 10:37:32;;;;;;;4.00;1.70;;;21.30;51.00;;;;;;5042081;28;20021;-53
2022/10/04 10:40:15;;;;;;;4.95;1.70;;;21.30;51.00;;;;;;5039772;28;20021;-53
2022/10/04 10:43:19;;;;;;;3.00;1.17;;;21.30;51.00;;;;;;5042386;28;20028;-55
2022/10/04 10:46:17;;;;;;;5.28;1.70;;;21.30;50.70;;;;;;5038043;28;20029;-52
2022/10/04 10:48:49;;;;;;;4.32;1.60;;;21.30;50.40;;;;;;5037692;28;20129;-51
2022/10/04 10:51:35;;;;;;;4.13;1.80;;;21.30;50.20;;;;;;5027815;28;20033;-49
2022/10/04 10:54:29;;;;;;;2.63;1.23;;;21.30;50.00;;;;;;5050572;28;20033;-49
2022/10/04 10:57:13;;;;;;;3.43;1.67;;;21.30;49.80;;;;;;5034180;28;20360;-51
2022/10/04 11:00:10;;;;;;;3.33;1.40;;;21.40;49.80;;;;;;5034572;28;20026;-50
2022/10/04 11:02:48;;;;;;;3.97;1.60;;;21.40;49.60;;;;;;5036428;28;20024;-51
2022/10/04 11:05:47;;;;;;;4.40;1.50;;;21.40;49.50;;;;;;5037454;28;20115;-53
2022/10/04 11:08:43;;;;;;;2.35;1.25;;;21.40;49.40;;;;;;5030096;28;20028;-54
2022/10/04 11:11:27;;;;;;;4.43;1.50;;;21.40;49.30;;;;;;5061690;28;20384;-55
2022/10/04 11:14:20;;;;;;;6.13;1.95;;;21.40;49.20;;;;;;5034438;28;20036;-50
2022/10/04 11:17:04;;;;;;;3.53;1.50;;;21.40;49.30;;;;;;5029551;28;20026;-50
2022/10/04 11:20:27;;;;;;;5.07;1.67;;;21.40;49.20;;;;;;5038846;28;20068;-53
2022/10/04 11:23:19;;;;;;;2.67;1.50;;;21.40;49.10;;;;;;5029961;28;20742;-55
2022/10/04 11:26:05;;;;;;;3.05;1.48;;;21.40;49.00;;;;;;5032819;28;20088;-55
2022/10/04 11:29:09;;;;;;;3.97;1.60;;;21.40;48.90;;;;;;5038109;28;20115;-53
2022/10/04 11:32:03;;;;;;;3.20;1.42;;;21.40;48.80;;;;;;5030608;28;20025;-50
2022/10/04 11:34:58;;;;;;;3.55;1.38;;;21.40;48.60;;;;;;5037647;28;20115;-50
2022/10/04 11:38:02;;;;;;;3.83;1.58;;;21.40;48.60;;;;;;5033007;28;20112;-53
2022/10/04 11:40:32;;;;;;;3.60;1.60;;;21.40;48.40;;;;;;5033160;28;20119;-52
2022/10/04 11:43:36;;;;;;;4.03;1.58;;;21.40;48.30;;;;;;5034742;28;20025;-47
2022/10/04 11:46:21;;;;;;;4.10;1.40;;;21.50;48.20;;;;;;5035556;28;20052;-51
2022/10/04 11:49:17;;;;;;;6.38;1.70;;;21.50;48.20;;;;;;5037828;28;20110;-52
2022/10/04 11:51:58;;;;;;;2.85;1.30;;;21.50;48.20;;;;;;5037481;28;20075;-53
2022/10/04 11:54:29;;;;;;;3.50;1.40;;;21.50;48.10;;;;;;5044620;28;20028;-54
2022/10/04 11:57:09;;;;;;;4.85;1.45;;;21.50;48.10;;;;;;5042375;28;20056;-52
2022/10/04 11:59:54;;;;;;;2.58;1.25;;;21.50;48.10;;;;;;5043233;28;20338;-52
2022/10/04 12:02:57;;;;;;;4.00;1.70;;;21.50;48.00;;;;;;5046458;28;20025;-55
2022/10/04 12:05:32;;;;;;;4.22;2.03;;;21.50;48.00;;;;;;5046161;28;20448;-56
2022/10/04 12:08:38;;;;;;;4.22;1.15;;;21.50;48.10;;;;;;5048145;28;20099;-61
2022/10/04 12:11:26;;;;;;;5.07;1.60;;;21.50;48.10;;;;;;5056204;28;20041;-61
2022/10/04 12:14:28;;;;;;;3.78;1.60;;;21.50;48.20;;;;;;5031429;28;20049;-60
2022/10/04 12:17:56;;;;;;;4.40;1.13;;;21.60;48.10;;;;;;5042567;28;20035;-63
2022/10/04 12:20:27;;;;;;;2.65;1.13;;;21.60;48.10;;;;;;5036328;28;20029;-60
2022/10/04 12:23:31;;;;;;;3.08;1.25;;;21.70;48.00;;;;;;5038390;28;20033;-62
2022/10/04 12:26:38;;;;;;;3.17;1.20;;;21.80;47.90;;;;;;5041474;28;20043;-60
2022/10/04 12:29:16;;;;;;;3.38;1.25;;;22.00;47.60;;;;;;5044109;28;20124;-58
2022/10/04 12:31:52;;;;;;;2.33;1.00;;;22.10;47.40;;;;;;5039250;28;20361;-54
2022/10/04 12:34:48;;;;;;;1.95;0.88;;;22.20;47.10;;;;;;5039101;28;20049;-55
2022/10/04 12:37:39;;;;;;;2.40;1.33;;;22.30;46.80;;;;;;5035429;28;20044;-59
2022/10/04 12:40:05;;;;;;;2.40;0.93;;;22.40;46.40;;;;;;5069070;28;20409;-57
2022/10/04 12:42:48;;;;;;;1.60;0.82;;;22.50;46.10;;;;;;5037105;28;20112;-59
2022/10/04 12:45:26;;;;;;;2.95;1.17;;;22.60;45.90;;;;;;5038145;28;20037;-57
2022/10/04 12:48:04;;;;;;;2.28;1.10;;;22.70;45.50;;;;;;5040863;28;20365;-54
2022/10/04 12:50:52;;;;;;;2.47;1.02;;;22.80;45.90;;;;;;5034487;28;20037;-56
2022/10/04 12:53:46;;;;;;;1.95;0.90;;;22.90;45.20;;;;;;5039892;28;20085;-58
2022/10/04 12:56:21;;;;;;;2.20;1.00;;;22.90;45.10;;;;;;5043201;28;20036;-60
2022/10/04 12:59:21;;;;;;;2.00;0.93;;;23.00;45.10;;;;;;5040283;28;20119;-60
2022/10/04 13:02:04;;;;;;;2.22;1.10;;;23.00;45.00;;;;;;5032941;28;20041;-57
2022/10/04 13:04:51;;;;;;;2.60;1.00;;;23.10;45.00;;;;;;5038463;28;20041;-57
2022/10/04 13:07:36;;;;;;;1.98;1.13;;;23.10;44.90;;;;;;5035457;28;20060;-57
2022/10/04 13:10:12;;;;;;;;;;;23.20;44.80;;;;;;5036379;28;20099;-49
2022/10/04 13:13:15;;;;;;;2.38;0.90;;;23.30;44.50;;;;;;5034391;28;19925;-60
2022/10/04 13:16:21;;;;;;;2.25;0.80;;;23.30;44.10;;;;;;5039618;28;20030;-54
2022/10/04 13:18:58;;;;;;;1.70;0.80;;;23.40;43.90;;;;;;5038333;28;20032;-53
2022/10/04 13:21:49;;;;;;;2.20;0.90;;;23.50;43.90;;;;;;5035821;28;20025;-58
2022/10/04 13:24:54;;;;;;;2.53;0.80;;;23.60;43.90;;;;;;5034787;28;20436;-58
2022/10/04 13:27:40;;;;;;;3.45;1.30;;;23.70;43.80;;;;;;5029075;28;20098;-56
2022/10/04 13:30:28;;;;;;;3.85;1.27;;;23.70;43.50;;;;;;5034037;28;20049;-54
2022/10/04 13:33:25;;;;;;;2.88;0.90;;;23.80;43.50;;;;;;5038412;28;20386;-60
2022/10/04 13:36:02;;;;;;;2.30;0.90;;;23.80;43.30;;;;;;5034248;28;20022;-56
2022/10/04 13:38:43;;;;;;;2.25;0.93;;;23.90;43.20;;;;;;5034638;28;20040;-57
2022/10/04 13:41:15;;;;;;;3.13;1.00;;;24.00;43.10;;;;;;5031794;28;20045;-62
2022/10/04 13:44:10;;;;;;;1.98;1.20;;;24.00;42.90;;;;;;5037118;28;20037;-60
2022/10/04 13:46:45;;;;;;;1.60;1.00;;;24.00;42.80;;;;;;5043584;28;20022;-62
2022/10/04 13:49:30;;;;;;;2.88;1.27;;;24.10;42.70;;;;;;5043054;28;20036;-59
2022/10/04 13:58:15;;;;;;;2.75;1.13;;;24.20;42.50;;;;;;5032803;28;20091;-65
2022/10/04 14:01:18;;;;;;;2.20;0.85;;;24.20;42.40;;;;;;5032832;28;20061;-63
2022/10/04 14:04:05;;;;;;;1.63;1.10;;;24.30;42.40;;;;;;5039894;28;20060;-58
2022/10/04 14:06:49;;;;;;;3.50;1.20;;;24.30;42.20;;;;;;5037439;28;20048;-60
2022/10/04 14:09:40;;;;;;;1.88;0.70;;;24.40;42.10;;;;;;5039383;28;20132;-63
2022/10/04 14:12:06;;;;;;;2.28;1.00;;;24.40;42.00;;;;;;5038963;28;20360;-62
2022/10/04 14:14:53;;;;;;;1.50;0.80;;;24.40;41.80;;;;;;5042655;28;20029;-63
2022/10/04 14:17:37;;;;;;;2.83;1.02;;;24.40;41.70;;;;;;5031117;28;20021;-62